PWSweather.com
Personal Weather Stations
Station Observations
ANTHEMNP
Anthem North Parkside, Anthem, AZ 85086

Anthem North ParksideAnthem, AZ 85086

Lat: 33.876464, Lon: -112.13861199999997

Elevation: 1930

Station Type: Davis Vantage Vue with Pro 2 console

http://www.azjerry.com/ANPW/wxindex.php

High Low Average
Temperature 99.8°F37.7°C 75.1°F23.9°C 87.2°F30.7°C
Dew Point 53.0°F11.7°C 21.0°F-6.1°C 41.3°F5.2°C
Winds 11.3 mph 18.2 kmh Calm Calm 4.0 mph SSE6.4 kmh SSE
Wind Gusts 23.0 mph37.0 kmh -- 9.0 mph14.5 kmh
Humidity 43% 6% 23%
Pressure 30.02 in1016.6 mb 29.86 in1011.2 mb -
Precipitation 0.00 in0.0 mm - -
Hour Temp Dew Point Humidity Winds Wind Gusts Pressure Precip Precip Rate Daily Precip Total
12:00 AM 79.4°F26.3°C 52.0°F11.1°C 39% 1.7 mph N2.7 kmh N 3.0 mph4.8 kmh 29.95 in1014.2 mb 0.00 in0.0 mm 0.00 in0.0 mm 0.00 in0.0 mm
12:10 AM 79.1°F26.2°C 52.0°F11.1°C 39% 1.6 mph N2.6 kmh N 3.0 mph4.8 kmh 29.95 in1014.2 mb 0.00 in0.0 mm 0.00 in0.0 mm 0.00 in0.0 mm
12:20 AM 78.9°F26.1°C 53.0°F11.7°C 40% 2.3 mph N3.7 kmh N 4.0 mph6.4 kmh 29.95 in1014.2 mb 0.00 in0.0 mm 0.00 in0.0 mm 0.00 in0.0 mm
12:30 AM 79.0°F26.1°C 53.0°F11.7°C 41% 2.5 mph NE4.0 kmh NE 5.0 mph8.0 kmh 29.96 in1014.6 mb 0.00 in0.0 mm 0.00 in0.0 mm 0.00 in0.0 mm
12:40 AM 79.2°F26.2°C 53.0°F11.7°C 40% 2.7 mph NNE4.3 kmh NNE 5.0 mph8.0 kmh 29.96 in1014.6 mb 0.00 in0.0 mm 0.00 in0.0 mm 0.00 in0.0 mm
12:50 AM 79.2°F26.2°C 53.0°F11.7°C 40% 2.2 mph N3.5 kmh N 6.0 mph9.7 kmh 29.96 in1014.6 mb 0.00 in0.0 mm 0.00 in0.0 mm 0.00 in0.0 mm
01:00 AM 79.5°F26.4°C 53.0°F11.7°C 40% 3.7 mph N6.0 kmh N 6.0 mph9.7 kmh 29.96 in1014.6 mb 0.00 in0.0 mm 0.00 in0.0 mm 0.00 in0.0 mm
01:10 AM 79.1°F26.2°C 53.0°F11.7°C 40% 3.4 mph NNW5.5 kmh NNW 6.0 mph9.7 kmh 29.97 in1014.9 mb 0.00 in0.0 mm 0.00 in0.0 mm 0.00 in0.0 mm
01:20 AM 78.6°F25.9°C 53.0°F11.7°C 41% 2.7 mph N4.3 kmh N 5.0 mph8.0 kmh 29.97 in1014.9 mb 0.00 in0.0 mm 0.00 in0.0 mm 0.00 in0.0 mm
01:30 AM 78.4°F25.8°C 53.0°F11.7°C 41% 3.2 mph N5.1 kmh N 6.0 mph9.7 kmh 29.96 in1014.6 mb 0.00 in0.0 mm 0.00 in0.0 mm 0.00 in0.0 mm
01:40 AM 78.1°F25.6°C 53.0°F11.7°C 42% 4.9 mph NE7.9 kmh NE 10.0 mph16.1 kmh 29.97 in1014.9 mb 0.00 in0.0 mm 0.00 in0.0 mm 0.00 in0.0 mm
01:50 AM 77.8°F25.4°C 53.0°F11.7°C 42% 4.5 mph NNE7.2 kmh NNE 8.0 mph12.9 kmh 29.97 in1014.9 mb 0.00 in0.0 mm 0.00 in0.0 mm 0.00 in0.0 mm
02:00 AM 77.7°F25.4°C 53.0°F11.7°C 42% 3.8 mph N6.1 kmh N 10.0 mph16.1 kmh 29.97 in1014.9 mb 0.00 in0.0 mm 0.00 in0.0 mm 0.00 in0.0 mm
02:10 AM 77.5°F25.3°C 53.0°F11.7°C 42% 3.3 mph NE5.3 kmh NE 9.0 mph14.5 kmh 29.97 in1014.9 mb 0.00 in0.0 mm 0.00 in0.0 mm 0.00 in0.0 mm
02:20 AM 77.2°F25.1°C 52.0°F11.1°C 42% 3.7 mph N6.0 kmh N 8.0 mph12.9 kmh 29.96 in1014.6 mb 0.00 in0.0 mm 0.00 in0.0 mm 0.00 in0.0 mm
02:30 AM 77.2°F25.1°C 52.0°F11.1°C 41% 4.5 mph N7.2 kmh N 9.0 mph14.5 kmh 29.97 in1014.9 mb 0.00 in0.0 mm 0.00 in0.0 mm 0.00 in0.0 mm
02:40 AM 77.3°F25.2°C 52.0°F11.1°C 41% 5.2 mph NNE8.4 kmh NNE 10.0 mph16.1 kmh 29.97 in1014.9 mb 0.00 in0.0 mm 0.00 in0.0 mm 0.00 in0.0 mm
02:50 AM 77.6°F25.3°C 52.0°F11.1°C 41% 4.9 mph NE7.9 kmh NE 10.0 mph16.1 kmh 29.97 in1014.9 mb 0.00 in0.0 mm 0.00 in0.0 mm 0.00 in0.0 mm
03:00 AM 78.1°F25.6°C 52.0°F11.1°C 40% 4.9 mph NNW7.9 kmh NNW 10.0 mph16.1 kmh 29.97 in1014.9 mb 0.00 in0.0 mm 0.00 in0.0 mm 0.00 in0.0 mm
03:10 AM 78.1°F25.6°C 52.0°F11.1°C 40% 5.0 mph N8.0 kmh N 10.0 mph16.1 kmh 29.97 in1014.9 mb 0.00 in0.0 mm 0.00 in0.0 mm 0.00 in0.0 mm
03:20 AM 78.2°F25.7°C 52.0°F11.1°C 40% 6.0 mph NNW9.7 kmh NNW 11.0 mph17.7 kmh 29.96 in1014.6 mb 0.00 in0.0 mm 0.00 in0.0 mm 0.00 in0.0 mm
03:30 AM 78.1°F25.6°C 52.0°F11.1°C 40% 5.9 mph NE9.5 kmh NE 10.0 mph16.1 kmh 29.97 in1014.9 mb 0.00 in0.0 mm 0.00 in0.0 mm 0.00 in0.0 mm
03:40 AM 78.1°F25.6°C 52.0°F11.1°C 40% 5.6 mph NNE9.0 kmh NNE 11.0 mph17.7 kmh 29.97 in1014.9 mb 0.00 in0.0 mm 0.00 in0.0 mm 0.00 in0.0 mm
03:50 AM 78.0°F25.6°C 52.0°F11.1°C 40% 5.6 mph N9.0 kmh N 8.0 mph12.9 kmh 29.97 in1014.9 mb 0.00 in0.0 mm 0.00 in0.0 mm 0.00 in0.0 mm
04:00 AM 77.8°F25.4°C 52.0°F11.1°C 40% 5.4 mph NE8.7 kmh NE 9.0 mph14.5 kmh 29.97 in1014.9 mb 0.00 in0.0 mm 0.00 in0.0 mm 0.00 in0.0 mm
04:10 AM 77.7°F25.4°C 52.0°F11.1°C 41% 6.4 mph NE10.3 kmh NE 13.0 mph20.9 kmh 29.97 in1014.9 mb 0.00 in0.0 mm 0.00 in0.0 mm 0.00 in0.0 mm
04:20 AM 77.5°F25.3°C 52.0°F11.1°C 41% 5.8 mph N9.3 kmh N 10.0 mph16.1 kmh 29.97 in1014.9 mb 0.00 in0.0 mm 0.00 in0.0 mm 0.00 in0.0 mm
04:30 AM 77.4°F25.2°C 52.0°F11.1°C 42% 5.9 mph NNE9.5 kmh NNE 9.0 mph14.5 kmh 29.97 in1014.9 mb 0.00 in0.0 mm 0.00 in0.0 mm 0.00 in0.0 mm
04:40 AM 77.1°F25.1°C 52.0°F11.1°C 42% 6.4 mph N10.3 kmh N 11.0 mph17.7 kmh 29.97 in1014.9 mb 0.00 in0.0 mm 0.00 in0.0 mm 0.00 in0.0 mm
04:50 AM 76.8°F24.9°C 52.0°F11.1°C 42% 6.8 mph N10.9 kmh N 13.0 mph20.9 kmh 29.97 in1014.9 mb 0.00 in0.0 mm 0.00 in0.0 mm 0.00 in0.0 mm
05:00 AM 76.5°F24.7°C 52.0°F11.1°C 42% 6.5 mph NNE10.5 kmh NNE 12.0 mph19.3 kmh 29.98 in1015.2 mb 0.00 in0.0 mm 0.00 in0.0 mm 0.00 in0.0 mm
05:10 AM 76.1°F24.5°C 51.0°F10.6°C 42% 6.4 mph NE10.3 kmh NE 11.0 mph17.7 kmh 29.98 in1015.2 mb 0.00 in0.0 mm 0.00 in0.0 mm 0.00 in0.0 mm
05:20 AM 76.1°F24.5°C 51.0°F10.6°C 42% 5.7 mph N9.2 kmh N 9.0 mph14.5 kmh 29.98 in1015.2 mb 0.00 in0.0 mm 0.00 in0.0 mm 0.00 in0.0 mm
05:30 AM 76.2°F24.6°C 51.0°F10.6°C 41% 5.5 mph NE8.9 kmh NE 11.0 mph17.7 kmh 29.98 in1015.2 mb 0.00 in0.0 mm 0.00 in0.0 mm 0.00 in0.0 mm
05:40 AM 75.7°F24.3°C 51.0°F10.6°C 42% 7.6 mph NNW12.2 kmh NNW 13.0 mph20.9 kmh 29.98 in1015.2 mb 0.00 in0.0 mm 0.00 in0.0 mm 0.00 in0.0 mm
05:50 AM 75.3°F24.1°C 51.0°F10.6°C 42% 7.1 mph NE11.4 kmh NE 12.0 mph19.3 kmh 29.98 in1015.2 mb 0.00 in0.0 mm 0.00 in0.0 mm 0.00 in0.0 mm
06:00 AM 75.1°F23.9°C 51.0°F10.6°C 43% 7.0 mph NNE11.3 kmh NNE 12.0 mph19.3 kmh 29.98 in1015.2 mb 0.00 in0.0 mm 0.00 in0.0 mm 0.00 in0.0 mm
06:10 AM 75.3°F24.1°C 51.0°F10.6°C 43% 7.5 mph NE12.1 kmh NE 15.0 mph24.1 kmh 29.98 in1015.2 mb 0.00 in0.0 mm 0.00 in0.0 mm 0.00 in0.0 mm
06:20 AM 75.1°F23.9°C 50.0°F10.0°C 42% 9.2 mph NNE14.8 kmh NNE 14.0 mph22.5 kmh 29.99 in1015.6 mb 0.00 in0.0 mm 0.00 in0.0 mm 0.00 in0.0 mm
06:30 AM 75.4°F24.1°C 51.0°F10.6°C 42% 9.3 mph WNW15.0 kmh WNW 16.0 mph25.7 kmh 29.99 in1015.6 mb 0.00 in0.0 mm 0.00 in0.0 mm 0.00 in0.0 mm
06:40 AM 76.4°F24.7°C 50.0°F10.0°C 40% 10.1 mph N16.3 kmh N 18.0 mph29.0 kmh 29.99 in1015.6 mb 0.00 in0.0 mm 0.00 in0.0 mm 0.00 in0.0 mm
06:50 AM 77.1°F25.1°C 50.0°F10.0°C 39% 10.0 mph NE16.1 kmh NE 18.0 mph29.0 kmh 29.99 in1015.6 mb 0.00 in0.0 mm 0.00 in0.0 mm 0.00 in0.0 mm
07:00 AM 77.4°F25.2°C 50.0°F10.0°C 39% 10.3 mph N16.6 kmh N 17.0 mph27.4 kmh 30.00 in1015.9 mb 0.00 in0.0 mm 0.00 in0.0 mm 0.00 in0.0 mm
07:10 AM 78.0°F25.6°C 50.0°F10.0°C 38% 11.3 mph NNE18.2 kmh NNE 20.0 mph32.2 kmh 30.00 in1015.9 mb 0.00 in0.0 mm 0.00 in0.0 mm 0.00 in0.0 mm
07:20 AM 78.1°F25.6°C 50.0°F10.0°C 38% 10.3 mph NNE16.6 kmh NNE 19.0 mph30.6 kmh 30.00 in1015.9 mb 0.00 in0.0 mm 0.00 in0.0 mm 0.00 in0.0 mm
07:30 AM 78.6°F25.9°C 50.0°F10.0°C 37% 10.5 mph N16.9 kmh N 19.0 mph30.6 kmh 30.00 in1015.9 mb 0.00 in0.0 mm 0.00 in0.0 mm 0.00 in0.0 mm
07:40 AM 79.1°F26.2°C 51.0°F10.6°C 37% 10.7 mph ENE17.2 kmh ENE 23.0 mph37.0 kmh 30.00 in1015.9 mb 0.00 in0.0 mm 0.00 in0.0 mm 0.00 in0.0 mm
07:50 AM 80.2°F26.8°C 50.0°F10.0°C 35% 10.8 mph NNW17.4 kmh NNW 20.0 mph32.2 kmh 30.00 in1015.9 mb 0.00 in0.0 mm 0.00 in0.0 mm 0.00 in0.0 mm
08:00 AM 80.9°F27.2°C 51.0°F10.6°C 35% 10.4 mph NE16.7 kmh NE 18.0 mph29.0 kmh 30.00 in1015.9 mb 0.00 in0.0 mm 0.00 in0.0 mm 0.00 in0.0 mm
08:10 AM 81.7°F27.6°C 50.0°F10.0°C 33% 10.6 mph NW17.1 kmh NW 18.0 mph29.0 kmh 30.01 in1016.3 mb 0.00 in0.0 mm 0.00 in0.0 mm 0.00 in0.0 mm
08:20 AM 82.4°F28.0°C 50.0°F10.0°C 32% 10.3 mph NNE16.6 kmh NNE 17.0 mph27.4 kmh 30.01 in1016.3 mb 0.00 in0.0 mm 0.00 in0.0 mm 0.00 in0.0 mm
08:30 AM 82.8°F28.2°C 49.0°F9.4°C 31% 10.2 mph NNE16.4 kmh NNE 17.0 mph27.4 kmh 30.01 in1016.3 mb 0.00 in0.0 mm 0.00 in0.0 mm 0.00 in0.0 mm
08:40 AM 83.1°F28.4°C 48.0°F8.9°C 29% 11.3 mph NNE18.2 kmh NNE 19.0 mph30.6 kmh 30.01 in1016.3 mb 0.00 in0.0 mm 0.00 in0.0 mm 0.00 in0.0 mm
08:50 AM 83.8°F28.8°C 47.0°F8.3°C 28% 9.4 mph NW15.1 kmh NW 16.0 mph25.7 kmh 30.01 in1016.3 mb 0.00 in0.0 mm 0.00 in0.0 mm 0.00 in0.0 mm
09:00 AM 84.4°F29.1°C 47.0°F8.3°C 27% 9.2 mph N14.8 kmh N 17.0 mph27.4 kmh 30.01 in1016.3 mb 0.00 in0.0 mm 0.00 in0.0 mm 0.00 in0.0 mm
09:10 AM 85.4°F29.7°C 47.0°F8.3°C 26% 9.2 mph N14.8 kmh N 17.0 mph27.4 kmh 30.01 in1016.3 mb 0.00 in0.0 mm 0.00 in0.0 mm 0.00 in0.0 mm
09:20 AM 86.1°F30.1°C 45.0°F7.2°C 24% 9.6 mph NNE15.4 kmh NNE 16.0 mph25.7 kmh 30.01 in1016.3 mb 0.00 in0.0 mm 0.00 in0.0 mm 0.00 in0.0 mm
09:30 AM 86.9°F30.5°C 44.0°F6.7°C 22% 9.2 mph N14.8 kmh N 18.0 mph29.0 kmh 30.02 in1016.6 mb 0.00 in0.0 mm 0.00 in0.0 mm 0.00 in0.0 mm
09:40 AM 87.6°F30.9°C 44.0°F6.7°C 22% 8.5 mph N13.7 kmh N 17.0 mph27.4 kmh 30.01 in1016.3 mb 0.00 in0.0 mm 0.00 in0.0 mm 0.00 in0.0 mm
09:50 AM 88.2°F31.2°C 44.0°F6.7°C 21% 7.6 mph NE12.2 kmh NE 15.0 mph24.1 kmh 30.01 in1016.3 mb 0.00 in0.0 mm 0.00 in0.0 mm 0.00 in0.0 mm
10:00 AM 88.8°F31.6°C 43.0°F6.1°C 20% 7.1 mph NNE11.4 kmh NNE 15.0 mph24.1 kmh 30.01 in1016.3 mb 0.00 in0.0 mm 0.00 in0.0 mm 0.00 in0.0 mm
10:10 AM 89.3°F31.8°C 43.0°F6.1°C 20% 7.2 mph NNW11.6 kmh NNW 15.0 mph24.1 kmh 30.01 in1016.3 mb 0.00 in0.0 mm 0.00 in0.0 mm 0.00 in0.0 mm
10:20 AM 90.1°F32.3°C 43.0°F6.1°C 19% 5.1 mph NW8.2 kmh NW 10.0 mph16.1 kmh 30.00 in1015.9 mb 0.00 in0.0 mm 0.00 in0.0 mm 0.00 in0.0 mm
10:30 AM 91.1°F32.8°C 41.0°F5.0°C 17% 4.8 mph NE7.7 kmh NE 10.0 mph16.1 kmh 30.00 in1015.9 mb 0.00 in0.0 mm 0.00 in0.0 mm 0.00 in0.0 mm
10:40 AM 91.3°F32.9°C 39.0°F3.9°C 16% 5.8 mph NW9.3 kmh NW 14.0 mph22.5 kmh 30.00 in1015.9 mb 0.00 in0.0 mm 0.00 in0.0 mm 0.00 in0.0 mm
10:50 AM 92.1°F33.4°C 38.0°F3.3°C 15% 4.1 mph NNE6.6 kmh NNE 10.0 mph16.1 kmh 30.00 in1015.9 mb 0.00 in0.0 mm 0.00 in0.0 mm 0.00 in0.0 mm
11:00 AM 91.9°F33.3°C 38.0°F3.3°C 15% 3.4 mph WNW5.5 kmh WNW 10.0 mph16.1 kmh 29.99 in1015.6 mb 0.00 in0.0 mm 0.00 in0.0 mm 0.00 in0.0 mm
11:10 AM 92.7°F33.7°C 39.0°F3.9°C 15% 4.7 mph NNW7.6 kmh NNW 11.0 mph17.7 kmh 30.00 in1015.9 mb 0.00 in0.0 mm 0.00 in0.0 mm 0.00 in0.0 mm
11:20 AM 93.1°F33.9°C 37.0°F2.8°C 14% 2.9 mph NW4.7 kmh NW 11.0 mph17.7 kmh 29.99 in1015.6 mb 0.00 in0.0 mm 0.00 in0.0 mm 0.00 in0.0 mm
11:30 AM 93.6°F34.2°C 38.0°F3.3°C 14% 3.2 mph NNW5.1 kmh NNW 13.0 mph20.9 kmh 29.99 in1015.6 mb 0.00 in0.0 mm 0.00 in0.0 mm 0.00 in0.0 mm
11:40 AM 94.2°F34.6°C 36.0°F2.2°C 13% 2.4 mph NNE3.9 kmh NNE 10.0 mph16.1 kmh 29.99 in1015.6 mb 0.00 in0.0 mm 0.00 in0.0 mm 0.00 in0.0 mm
11:50 AM 94.6°F34.8°C 37.0°F2.8°C 13% 3.0 mph N4.8 kmh N 7.0 mph11.3 kmh 29.99 in1015.6 mb 0.00 in0.0 mm 0.00 in0.0 mm 0.00 in0.0 mm
12:00 PM 94.7°F34.8°C 35.0°F1.7°C 12% 3.1 mph NE5.0 kmh NE 8.0 mph12.9 kmh 29.98 in1015.2 mb 0.00 in0.0 mm 0.00 in0.0 mm 0.00 in0.0 mm
12:10 PM 94.9°F34.9°C 37.0°F2.8°C 13% 2.5 mph WNW4.0 kmh WNW 7.0 mph11.3 kmh 29.97 in1014.9 mb 0.00 in0.0 mm 0.00 in0.0 mm 0.00 in0.0 mm
12:20 PM 95.1°F35.1°C 35.0°F1.7°C 12% 2.7 mph W4.3 kmh W 8.0 mph12.9 kmh 29.97 in1014.9 mb 0.00 in0.0 mm 0.00 in0.0 mm 0.00 in0.0 mm
12:30 PM 96.1°F35.6°C 34.0°F1.1°C 11% 2.3 mph NNE3.7 kmh NNE 7.0 mph11.3 kmh 29.97 in1014.9 mb 0.00 in0.0 mm 0.00 in0.0 mm 0.00 in0.0 mm
12:40 PM 96.0°F35.6°C 33.0°F0.6°C 11% 2.8 mph NW4.5 kmh NW 8.0 mph12.9 kmh 29.96 in1014.6 mb 0.00 in0.0 mm 0.00 in0.0 mm 0.00 in0.0 mm
12:50 PM 96.8°F36.0°C 34.0°F1.1°C 11% 2.2 mph WSW3.5 kmh WSW 7.0 mph11.3 kmh 29.96 in1014.6 mb 0.00 in0.0 mm 0.00 in0.0 mm 0.00 in0.0 mm
01:00 PM 96.6°F35.9°C 34.0°F1.1°C 11% 3.7 mph NE6.0 kmh NE 10.0 mph16.1 kmh 29.96 in1014.6 mb 0.00 in0.0 mm 0.00 in0.0 mm 0.00 in0.0 mm
01:10 PM 96.9°F36.1°C 34.0°F1.1°C 11% 2.5 mph NNE4.0 kmh NNE 8.0 mph12.9 kmh 29.95 in1014.2 mb 0.00 in0.0 mm 0.00 in0.0 mm 0.00 in0.0 mm
01:20 PM 97.1°F36.2°C 34.0°F1.1°C 11% 2.5 mph NW4.0 kmh NW 9.0 mph14.5 kmh 29.94 in1013.9 mb 0.00 in0.0 mm 0.00 in0.0 mm 0.00 in0.0 mm
01:30 PM 97.5°F36.4°C 35.0°F1.7°C 11% 1.8 mph N2.9 kmh N 9.0 mph14.5 kmh 29.94 in1013.9 mb 0.00 in0.0 mm 0.00 in0.0 mm 0.00 in0.0 mm
01:40 PM 98.0°F36.7°C 33.0°F0.6°C 10% 3.2 mph NE5.1 kmh NE 7.0 mph11.3 kmh 29.94 in1013.9 mb 0.00 in0.0 mm 0.00 in0.0 mm 0.00 in0.0 mm
01:50 PM 98.4°F36.9°C 33.0°F0.6°C 10% 1.6 mph NNE2.6 kmh NNE 7.0 mph11.3 kmh 29.93 in1013.5 mb 0.00 in0.0 mm 0.00 in0.0 mm 0.00 in0.0 mm
02:00 PM 98.4°F36.9°C 33.0°F0.6°C 10% 2.1 mph NW3.4 kmh NW 4.0 mph6.4 kmh 29.93 in1013.5 mb 0.00 in0.0 mm 0.00 in0.0 mm 0.00 in0.0 mm
02:10 PM 99.0°F37.2°C 34.0°F1.1°C 10% 2.4 mph N3.9 kmh N 8.0 mph12.9 kmh 29.91 in1012.9 mb 0.00 in0.0 mm 0.00 in0.0 mm 0.00 in0.0 mm
02:20 PM 98.0°F36.7°C 33.0°F0.6°C 10% 5.1 mph NE8.2 kmh NE 14.0 mph22.5 kmh 29.91 in1012.9 mb 0.00 in0.0 mm 0.00 in0.0 mm 0.00 in0.0 mm
02:30 PM 98.3°F36.8°C 30.0°F-1.1°C 9% 1.8 mph WNW2.9 kmh WNW 7.0 mph11.3 kmh 29.91 in1012.9 mb 0.00 in0.0 mm 0.00 in0.0 mm 0.00 in0.0 mm
02:40 PM 98.2°F36.8°C 30.0°F-1.1°C 9% 3.3 mph S5.3 kmh S 14.0 mph22.5 kmh 29.91 in1012.9 mb 0.00 in0.0 mm 0.00 in0.0 mm 0.00 in0.0 mm
02:50 PM 98.8°F37.1°C 28.0°F-2.2°C 8% 3.0 mph NNW4.8 kmh NNW 7.0 mph11.3 kmh 29.91 in1012.9 mb 0.00 in0.0 mm 0.00 in0.0 mm 0.00 in0.0 mm
03:00 PM 99.3°F37.4°C 25.0°F-3.9°C 7% 1.2 mph S1.9 kmh S 4.0 mph6.4 kmh 29.90 in1012.5 mb 0.00 in0.0 mm 0.00 in0.0 mm 0.00 in0.0 mm
03:10 PM 99.6°F37.6°C 28.0°F-2.2°C 8% 2.0 mph NNE3.2 kmh NNE 9.0 mph14.5 kmh 29.90 in1012.5 mb 0.00 in0.0 mm 0.00 in0.0 mm 0.00 in0.0 mm
03:20 PM 98.8°F37.1°C 28.0°F-2.2°C 8% 4.6 mph N7.4 kmh N 13.0 mph20.9 kmh 29.89 in1012.2 mb 0.00 in0.0 mm 0.00 in0.0 mm 0.00 in0.0 mm
03:30 PM 98.5°F36.9°C 21.0°F-6.1°C 6% 4.2 mph N6.8 kmh N 10.0 mph16.1 kmh 29.89 in1012.2 mb 0.00 in0.0 mm 0.00 in0.0 mm 0.00 in0.0 mm
03:40 PM 98.6°F37.0°C 28.0°F-2.2°C 8% 3.2 mph NW5.1 kmh NW 9.0 mph14.5 kmh 29.88 in1011.9 mb 0.00 in0.0 mm 0.00 in0.0 mm 0.00 in0.0 mm
03:50 PM 98.1°F36.7°C 27.0°F-2.8°C 8% 1.8 mph SSW2.9 kmh SSW 4.0 mph6.4 kmh 29.88 in1011.9 mb 0.00 in0.0 mm 0.00 in0.0 mm 0.00 in0.0 mm
04:00 PM 99.0°F37.2°C 28.0°F-2.2°C 8% 1.0 mph SE1.6 kmh SE 6.0 mph9.7 kmh 29.88 in1011.9 mb 0.00 in0.0 mm 0.00 in0.0 mm 0.00 in0.0 mm
04:10 PM 99.8°F37.7°C 29.0°F-1.7°C 8% 1.7 mph NE2.7 kmh NE 4.0 mph6.4 kmh 29.87 in1011.5 mb 0.00 in0.0 mm 0.00 in0.0 mm 0.00 in0.0 mm
04:20 PM 99.7°F37.6°C 29.0°F-1.7°C 8% 1.2 mph N1.9 kmh N 6.0 mph9.7 kmh 29.87 in1011.5 mb 0.00 in0.0 mm 0.00 in0.0 mm 0.00 in0.0 mm
04:30 PM 98.7°F37.1°C 33.0°F0.6°C 10% 2.2 mph N3.5 kmh N 7.0 mph11.3 kmh 29.87 in1011.5 mb 0.00 in0.0 mm 0.00 in0.0 mm 0.00 in0.0 mm
04:40 PM 98.2°F36.8°C 27.0°F-2.8°C 8% 2.6 mph WNW4.2 kmh WNW 6.0 mph9.7 kmh 29.86 in1011.2 mb 0.00 in0.0 mm 0.00 in0.0 mm 0.00 in0.0 mm
04:50 PM 98.6°F37.0°C 31.0°F-0.6°C 9% 1.5 mph WNW2.4 kmh WNW 4.0 mph6.4 kmh 29.86 in1011.2 mb 0.00 in0.0 mm 0.00 in0.0 mm 0.00 in0.0 mm
05:00 PM 98.5°F36.9°C 30.0°F-1.1°C 9% 1.4 mph WNW2.3 kmh WNW 4.0 mph6.4 kmh 29.86 in1011.2 mb 0.00 in0.0 mm 0.00 in0.0 mm 0.00 in0.0 mm
05:10 PM 98.7°F37.1°C 33.0°F0.6°C 10% 1.5 mph NW2.4 kmh NW 5.0 mph8.0 kmh 29.86 in1011.2 mb 0.00 in0.0 mm 0.00 in0.0 mm 0.00 in0.0 mm
05:20 PM 98.2°F36.8°C 33.0°F0.6°C 10% 1.0 mph S1.6 kmh S 6.0 mph9.7 kmh 29.86 in1011.2 mb 0.00 in0.0 mm 0.00 in0.0 mm 0.00 in0.0 mm
05:30 PM 97.9°F36.6°C 35.0°F1.7°C 11% 2.8 mph SW4.5 kmh SW 6.0 mph9.7 kmh 29.86 in1011.2 mb 0.00 in0.0 mm 0.00 in0.0 mm 0.00 in0.0 mm
05:40 PM 97.9°F36.6°C 35.0°F1.7°C 11% 3.0 mph SSW4.8 kmh SSW 8.0 mph12.9 kmh 29.86 in1011.2 mb 0.00 in0.0 mm 0.00 in0.0 mm 0.00 in0.0 mm
05:50 PM 97.8°F36.6°C 30.0°F-1.1°C 9% 0.6 mph SW1.0 kmh SW 3.0 mph4.8 kmh 29.86 in1011.2 mb 0.00 in0.0 mm 0.00 in0.0 mm 0.00 in0.0 mm
06:00 PM 97.6°F36.4°C 30.0°F-1.1°C 9% 0.9 mph NW1.4 kmh NW 3.0 mph4.8 kmh 29.86 in1011.2 mb 0.00 in0.0 mm 0.00 in0.0 mm 0.00 in0.0 mm
06:10 PM 96.9°F36.1°C 34.0°F1.1°C 11% 0.7 mph SW1.1 kmh SW 3.0 mph4.8 kmh 29.86 in1011.2 mb 0.00 in0.0 mm 0.00 in0.0 mm 0.00 in0.0 mm
06:20 PM 96.3°F35.7°C 34.0°F1.1°C 11% 0.4 mph NW0.6 kmh NW 4.0 mph6.4 kmh 29.86 in1011.2 mb 0.00 in0.0 mm 0.00 in0.0 mm 0.00 in0.0 mm
06:30 PM 95.8°F35.4°C 36.0°F2.2°C 12% 0.8 mph SW1.3 kmh SW 3.0 mph4.8 kmh 29.86 in1011.2 mb 0.00 in0.0 mm 0.00 in0.0 mm 0.00 in0.0 mm
06:40 PM 95.3°F35.2°C 35.0°F1.7°C 12% 0.9 mph SW1.4 kmh SW 5.0 mph8.0 kmh 29.86 in1011.2 mb 0.00 in0.0 mm 0.00 in0.0 mm 0.00 in0.0 mm
06:50 PM 94.5°F34.7°C 37.0°F2.8°C 13% 0.9 mph SW1.4 kmh SW 4.0 mph6.4 kmh 29.86 in1011.2 mb 0.00 in0.0 mm 0.00 in0.0 mm 0.00 in0.0 mm
07:00 PM 94.0°F34.4°C 38.0°F3.3°C 14% 1.7 mph SW2.7 kmh SW 5.0 mph8.0 kmh 29.87 in1011.5 mb 0.00 in0.0 mm 0.00 in0.0 mm 0.00 in0.0 mm
07:10 PM 93.6°F34.2°C 38.0°F3.3°C 14% 2.3 mph SSW3.7 kmh SSW 5.0 mph8.0 kmh 29.87 in1011.5 mb 0.00 in0.0 mm 0.00 in0.0 mm 0.00 in0.0 mm
07:20 PM 93.1°F33.9°C 37.0°F2.8°C 14% 0.7 mph SW1.1 kmh SW 4.0 mph6.4 kmh 29.87 in1011.5 mb 0.00 in0.0 mm 0.00 in0.0 mm 0.00 in0.0 mm
07:30 PM 92.4°F33.6°C 37.0°F2.8°C 14% 0.9 mph SW1.4 kmh SW 3.0 mph4.8 kmh 29.87 in1011.5 mb 0.00 in0.0 mm 0.00 in0.0 mm 0.00 in0.0 mm
07:40 PM 91.9°F33.3°C 36.0°F2.2°C 14% 0.5 mph SW0.8 kmh SW 3.0 mph4.8 kmh 29.88 in1011.9 mb 0.00 in0.0 mm 0.00 in0.0 mm 0.00 in0.0 mm
07:50 PM 91.4°F33.0°C 36.0°F2.2°C 14% 0.7 mph S1.1 kmh S 3.0 mph4.8 kmh 29.87 in1011.5 mb 0.00 in0.0 mm 0.00 in0.0 mm 0.00 in0.0 mm
08:00 PM 91.0°F32.8°C 36.0°F2.2°C 14% 1.4 mph SW2.3 kmh SW 5.0 mph8.0 kmh 29.88 in1011.9 mb 0.00 in0.0 mm 0.00 in0.0 mm 0.00 in0.0 mm
08:10 PM 90.4°F32.4°C 35.0°F1.7°C 14% 0.9 mph S1.4 kmh S 2.0 mph3.2 kmh 29.88 in1011.9 mb 0.00 in0.0 mm 0.00 in0.0 mm 0.00 in0.0 mm
08:20 PM 89.7°F32.1°C 34.0°F1.1°C 14% 0.5 mph SW0.8 kmh SW 2.0 mph3.2 kmh 29.88 in1011.9 mb 0.00 in0.0 mm 0.00 in0.0 mm 0.00 in0.0 mm
08:30 PM 88.9°F31.6°C 36.0°F2.2°C 15% 0.1 mph SW0.2 kmh SW 1.0 mph1.6 kmh 29.89 in1012.2 mb 0.00 in0.0 mm 0.00 in0.0 mm 0.00 in0.0 mm
08:40 PM 88.0°F31.1°C 38.0°F3.3°C 17% 0.5 mph SE0.8 kmh SE 2.0 mph3.2 kmh 29.89 in1012.2 mb 0.00 in0.0 mm 0.00 in0.0 mm 0.00 in0.0 mm
08:50 PM 87.7°F30.9°C 39.0°F3.9°C 18% 1.1 mph SE1.8 kmh SE 3.0 mph4.8 kmh 29.89 in1012.2 mb 0.00 in0.0 mm 0.00 in0.0 mm 0.00 in0.0 mm
09:00 PM 87.2°F30.7°C 40.0°F4.4°C 19% 0.4 mph SE0.6 kmh SE 2.0 mph3.2 kmh 29.90 in1012.5 mb 0.00 in0.0 mm 0.00 in0.0 mm 0.00 in0.0 mm
09:10 PM 86.4°F30.2°C 40.0°F4.4°C 19% Calm Calm -- 29.90 in1012.5 mb 0.00 in0.0 mm 0.00 in0.0 mm 0.00 in0.0 mm
09:20 PM 85.9°F29.9°C 40.0°F4.4°C 20% Calm Calm 1.0 mph1.6 kmh 29.90 in1012.5 mb 0.00 in0.0 mm 0.00 in0.0 mm 0.00 in0.0 mm
09:30 PM 84.8°F29.3°C 41.0°F5.0°C 21% Calm Calm -- 29.90 in1012.5 mb 0.00 in0.0 mm 0.00 in0.0 mm 0.00 in0.0 mm
09:40 PM 83.7°F28.7°C 40.0°F4.4°C 21% Calm Calm -- 29.90 in1012.5 mb 0.00 in0.0 mm 0.00 in0.0 mm 0.00 in0.0 mm
09:50 PM 83.2°F28.4°C 39.0°F3.9°C 21% 0.2 mph SE0.3 kmh SE 1.0 mph1.6 kmh 29.90 in1012.5 mb 0.00 in0.0 mm 0.00 in0.0 mm 0.00 in0.0 mm
10:00 PM 82.9°F28.3°C 38.0°F3.3°C 20% Calm Calm 1.0 mph1.6 kmh 29.90 in1012.5 mb 0.00 in0.0 mm 0.00 in0.0 mm 0.00 in0.0 mm
10:10 PM 81.6°F27.6°C 37.0°F2.8°C 20% 0.8 mph NNE1.3 kmh NNE 5.0 mph8.0 kmh 29.90 in1012.5 mb 0.00 in0.0 mm 0.00 in0.0 mm 0.00 in0.0 mm
10:20 PM 82.3°F27.9°C 36.0°F2.2°C 19% 2.4 mph N3.9 kmh N 6.0 mph9.7 kmh 29.90 in1012.5 mb 0.00 in0.0 mm 0.00 in0.0 mm 0.00 in0.0 mm
10:30 PM 83.1°F28.4°C 38.0°F3.3°C 20% 2.3 mph NNE3.7 kmh NNE 5.0 mph8.0 kmh 29.90 in1012.5 mb 0.00 in0.0 mm 0.00 in0.0 mm 0.00 in0.0 mm
10:40 PM 83.6°F28.7°C 36.0°F2.2°C 18% 1.4 mph NNE2.3 kmh NNE 3.0 mph4.8 kmh 29.90 in1012.5 mb 0.00 in0.0 mm 0.00 in0.0 mm 0.00 in0.0 mm
10:50 PM 83.6°F28.7°C 37.0°F2.8°C 19% 1.1 mph N1.8 kmh N 3.0 mph4.8 kmh 29.90 in1012.5 mb 0.00 in0.0 mm 0.00 in0.0 mm 0.00 in0.0 mm
11:00 PM 83.0°F28.3°C 35.0°F1.7°C 18% 1.2 mph NNE1.9 kmh NNE 4.0 mph6.4 kmh 29.90 in1012.5 mb 0.00 in0.0 mm 0.00 in0.0 mm 0.00 in0.0 mm
11:10 PM 84.5°F29.2°C 30.0°F-1.1°C 14% 3.1 mph N5.0 kmh N 7.0 mph11.3 kmh 29.90 in1012.5 mb 0.00 in0.0 mm 0.00 in0.0 mm 0.00 in0.0 mm
11:20 PM 85.4°F29.7°C 29.0°F-1.7°C 13% 4.5 mph NNE7.2 kmh NNE 9.0 mph14.5 kmh 29.90 in1012.5 mb 0.00 in0.0 mm 0.00 in0.0 mm 0.00 in0.0 mm
11:30 PM 85.5°F29.7°C 31.0°F-0.6°C 14% 4.7 mph N7.6 kmh N 9.0 mph14.5 kmh 29.89 in1012.2 mb 0.00 in0.0 mm 0.00 in0.0 mm 0.00 in0.0 mm
11:40 PM 85.1°F29.5°C 31.0°F-0.6°C 14% 3.0 mph N4.8 kmh N 6.0 mph9.7 kmh 29.90 in1012.5 mb 0.00 in0.0 mm 0.00 in0.0 mm 0.00 in0.0 mm
11:50 PM 85.1°F29.5°C 31.0°F-0.6°C 14% 4.2 mph NE6.8 kmh NE 10.0 mph16.1 kmh 29.90 in1012.5 mb 0.00 in0.0 mm 0.00 in0.0 mm 0.00 in0.0 mm